Terminal Aerodrome Forecast
Issued by NWS Birmingham, AL

Home | Current Version | Previous Version | Text Only | Print | Product List | Glossary On
Versions: 1 2 3 4 5 6 7 8 9 10 11 12 13 14 15 16 17 18 19 20 21 22
000
FTUS44 KBMX 222300
TAFBHM
TAF
KBHM 222326Z 2300/2324 08004KT P6SM VCSH SCT035 BKN120
     FM230500 VRB02KT P6SM BKN100
     FM231000 08005KT 4SM BR FEW008 BKN012
     FM231500 25005KT P6SM SCT015 BKN025
     FM231900 26005KT P6SM VCTS BKN040CB=

USA.gov is the U.S. government's official web portal to all federal, state and local government web resources and services.